Pagrindinis puslapis
METAR-TAF:

METAR-TAF

Oro uostai :

Širazas, Iranas

platuma: 29-32N, ilguma: 052-35E, Aukštis: 1486 m

Dabartinis oras

Ataskaita buvo paskelbta 25 minutes, ne 04:00 UTC
Ramus vėjas
Temperatūra 14°C
Drėgmė 19%
Slėgis 1024 hPa
Matomumas 10 km arba daugiau
nėra debesų žemiau 1500 m ir nėra kamuolinių lietaus debesų

METAR: OISS 210400Z 00000KT CAVOK 14/M09 Q1024 A3025

Laikas: 07:55 (04:25 UTC)

Prognozė

Ataskaita buvo paskelbta 5 valandos ir 25 minutes, ne 23:00 UTC
Prognozė galioja nuo 21 metu 00 UTC su 22 metu 06 UTC
Vėjas 6 kt iš Vakarų
Matomumas: 8000 m
Laikinai
nuo 21 metu 09 UTC su 21 metu 12 UTC
Vėjas 12 kt iš Pietų/Pietryčių

TAF: OISS 202300Z 2100/2206 27006KT 8000 NSC TEMPO 2109/2112 15012KT

Orai ataskaitas ir orų prognozės (METAR, TAF).

turimą stotys yra geltonos ir raudonos taškus žemėlapyje.

Perkelti pele per norėdami pamatyti stoties vardą.

Tada spustelėkite, norėdami matyti oro stebėjimo ir prognozės.

Norėdami pakeisti žemėlapį: spustelėkite ant žalios mygtukų su juodo kryžiaus žemyn,; žalią mygtuką su brūkšneliu, jei norite nutolinti; arba žalių rodyklių gretimoms žemėlapius.


METAR-TAF: